This is the latest recevied weather packets stored in our database for station/object HS3PIK-2. If no packets are shown the sender has not sent any weather packets the latest 10 day(s).
| Time | Temp. | Humidity | Pressure | Rain* | Wind** | Luminosity | Snow |
|---|---|---|---|---|---|---|---|
| 1778141193 | 32.78° C | 70% | - | - | - | 0 W/m² | - |
| 1778140866 | 33.33° C | 67% | - | - | - | 0 W/m² | - |
| 1778140536 | 34.44° C | 67% | - | - | - | 0 W/m² | - |
| 1778140209 | 35.56° C | 64% | - | - | - | 0 W/m² | - |
| 1778139881 | 37.22° C | 59% | - | - | - | 0 W/m² | - |
| 1778139551 | 37.22° C | 60% | - | - | - | 0 W/m² | - |
| 1778139229 | 38.33° C | 55% | - | - | - | 0 W/m² | - |
| 1778138896 | 38.89° C | 57% | - | - | - | 0 W/m² | - |
| 1778138569 | 38.33° C | 57% | - | - | - | 0 W/m² | - |
| 1778138241 | 38.33° C | 58% | - | - | - | 0 W/m² | - |
| 1778137911 | 37.78° C | 59% | - | - | - | 0 W/m² | - |
| 1778137586 | 37.22° C | 59% | - | - | - | 0 W/m² | - |
| 1778137254 | 37.22° C | 59% | - | - | - | 0 W/m² | - |
| 1778136931 | 36.67° C | 61% | - | - | - | 0 W/m² | - |
| 1778136609 | 36.11° C | 61% | - | - | - | 0 W/m² | - |
| 1778136282 | 35.56° C | 62% | - | - | - | 0 W/m² | - |
| 1778135954 | 35.56° C | 63% | - | - | - | 0 W/m² | - |
| 1778135626 | 35° C | 63% | - | - | - | 0 W/m² | - |
| 1778135301 | 34.44° C | 65% | - | - | - | 0 W/m² | - |
| 1778134972 | 35° C | 63% | - | - | - | 0 W/m² | - |
| 1778134644 | 35° C | 65% | - | - | - | 0 W/m² | - |
| 1778134319 | 35° C | 61% | - | - | - | 0 W/m² | - |
| 1778133989 | 35.56° C | 63% | - | - | - | 0 W/m² | - |
| 1778133664 | 35.56° C | 62% | - | - | - | 0 W/m² | - |
| 1778133334 | 36.11° C | 63% | - | - | - | 0 W/m² | - |
* Rain since midnight (hover to see other rain measurements)
** Current wind speed in m/s (hover to see current wind gust speed)